sensor_id;sensor_type;location;lat;lon;timestamp;P1;durP1;ratioP1;P2;durP2;ratioP2
8544;SDS011;4310;51.054;6.994;2023-01-01T00:00:40;30.52;;;21.33;;
8544;SDS011;4310;51.054;6.994;2023-01-01T00:02:54;34.55;;;23.50;;
8544;SDS011;4310;51.054;6.994;2023-01-01T00:03:58;29.72;;;21.62;;
8544;SDS011;4310;51.054;6.994;2023-01-01T00:05:03;27.95;;;19.45;;
8544;SDS011;4310;51.054;6.994;2023-01-01T00:07:19;24.82;;;16.37;;
8544;SDS011;4310;51.054;6.994;2023-01-01T00:08:25;26.75;;;19.32;;
8544;SDS011;4310;51.054;6.994;2023-01-01T00:09:29;26.35;;;17.82;;
8544;SDS011;4310;51.054;6.994;2023-01-01T00:10:50;24.15;;;16.87;;
8544;SDS011;4310;51.054;6.994;2023-01-01T00:11:54;24.43;;;16.67;;
8544;SDS011;4310;51.054;6.994;2023-01-01T00:12:58;22.95;;;15.68;;
8544;SDS011;4310;51.054;6.994;2023-01-01T00:15:13;24.50;;;16.50;;
8544;SDS011;4310;51.054;6.994;2023-01-01T00:16:17;26.33;;;17.73;;
8544;SDS011;4310;51.054;6.994;2023-01-01T00:17:21;28.32;;;18.35;;
8544;SDS011;4310;51.054;6.994;2023-01-01T00:18:25;27.00;;;19.67;;
8544;SDS011;4310;51.054;6.994;2023-01-01T00:19:29;31.87;;;20.52;;
8544;SDS011;4310;51.054;6.994;2023-01-01T00:20:33;29.90;;;20.80;;
8544;SDS011;4310;51.054;6.994;2023-01-01T00:21:36;31.37;;;20.97;;
8544;SDS011;4310;51.054;6.994;2023-01-01T00:22:41;29.35;;;21.17;;
8544;SDS011;4310;51.054;6.994;2023-01-01T00:24:56;28.67;;;19.20;;
8544;SDS011;4310;51.054;6.994;2023-01-01T00:26:00;29.77;;;19.12;;
8544;SDS011;4310;51.054;6.994;2023-01-01T00:28:16;28.83;;;18.02;;
8544;SDS011;4310;51.054;6.994;2023-01-01T00:29:19;24.52;;;17.12;;
8544;SDS011;4310;51.054;6.994;2023-01-01T00:30:23;25.27;;;16.85;;
8544;SDS011;4310;51.054;6.994;2023-01-01T00:32:38;20.95;;;13.93;;
8544;SDS011;4310;51.054;6.994;2023-01-01T00:33:42;21.33;;;13.95;;
8544;SDS011;4310;51.054;6.994;2023-01-01T00:34:46;18.50;;;13.08;;
8544;SDS011;4310;51.054;6.994;2023-01-01T00:35:49;21.90;;;13.90;;
8544;SDS011;4310;51.054;6.994;2023-01-01T00:36:53;17.75;;;12.37;;
8544;SDS011;4310;51.054;6.994;2023-01-01T00:37:57;19.00;;;12.47;;
8544;SDS011;4310;51.054;6.994;2023-01-01T00:39:01;17.45;;;12.30;;
8544;SDS011;4310;51.054;6.994;2023-01-01T00:40:05;16.95;;;11.45;;
8544;SDS011;4310;51.054;6.994;2023-01-01T00:41:09;15.45;;;10.68;;
8544;SDS011;4310;51.054;6.994;2023-01-01T00:43:25;13.98;;;10.38;;
8544;SDS011;4310;51.054;6.994;2023-01-01T00:44:28;14.53;;;8.10;;
8544;SDS011;4310;51.054;6.994;2023-01-01T00:45:32;10.53;;;7.83;;
8544;SDS011;4310;51.054;6.994;2023-01-01T00:46:36;11.63;;;8.65;;
8544;SDS011;4310;51.054;6.994;2023-01-01T00:47:40;11.83;;;8.23;;
8544;SDS011;4310;51.054;6.994;2023-01-01T00:48:43;12.23;;;7.43;;
8544;SDS011;4310;51.054;6.994;2023-01-01T00:49:47;11.10;;;7.50;;
8544;SDS011;4310;51.054;6.994;2023-01-01T00:50:51;11.55;;;7.30;;
8544;SDS011;4310;51.054;6.994;2023-01-01T00:51:55;12.85;;;6.58;;
8544;SDS011;4310;51.054;6.994;2023-01-01T00:52:58;9.68;;;6.60;;
8544;SDS011;4310;51.054;6.994;2023-01-01T00:54:02;10.50;;;6.55;;
8544;SDS011;4310;51.054;6.994;2023-01-01T00:55:06;8.98;;;6.12;;
8544;SDS011;4310;51.054;6.994;2023-01-01T00:56:10;9.30;;;6.05;;
8544;SDS011;4310;51.054;6.994;2023-01-01T00:57:14;12.03;;;5.62;;
8544;SDS011;4310;51.054;6.994;2023-01-01T00:58:18;12.25;;;5.80;;
8544;SDS011;4310;51.054;6.994;2023-01-01T00:59:22;7.83;;;5.28;;
8544;SDS011;4310;51.054;6.994;2023-01-01T01:01:37;7.95;;;5.53;;
8544;SDS011;4310;51.054;6.994;2023-01-01T01:02:42;11.30;;;5.75;;
8544;SDS011;4310;51.054;6.994;2023-01-01T01:03:46;7.03;;;4.50;;
8544;SDS011;4310;51.054;6.994;2023-01-01T01:04:49;8.43;;;4.62;;
8544;SDS011;4310;51.054;6.994;2023-01-01T01:05:53;8.60;;;4.23;;
8544;SDS011;4310;51.054;6.994;2023-01-01T01:06:57;6.37;;;4.00;;
8544;SDS011;4310;51.054;6.994;2023-01-01T01:08:00;8.28;;;3.80;;
8544;SDS011;4310;51.054;6.994;2023-01-01T01:09:04;6.00;;;3.03;;
8544;SDS011;4310;51.054;6.994;2023-01-01T01:10:08;6.25;;;3.60;;
8544;SDS011;4310;51.054;6.994;2023-01-01T01:11:14;6.70;;;3.87;;
8544;SDS011;4310;51.054;6.994;2023-01-01T01:12:18;5.42;;;3.58;;
8544;SDS011;4310;51.054;6.994;2023-01-01T01:13:21;7.53;;;3.75;;
8544;SDS011;4310;51.054;6.994;2023-01-01T01:14:25;7.30;;;3.90;;
8544;SDS011;4310;51.054;6.994;2023-01-01T01:16:40;3.75;;;2.70;;
8544;SDS011;4310;51.054;6.994;2023-01-01T01:17:44;3.87;;;2.95;;
8544;SDS011;4310;51.054;6.994;2023-01-01T01:18:49;5.85;;;3.30;;
8544;SDS011;4310;51.054;6.994;2023-01-01T01:19:53;4.30;;;3.02;;
8544;SDS011;4310;51.054;6.994;2023-01-01T01:20:57;5.28;;;3.02;;
8544;SDS011;4310;51.054;6.994;2023-01-01T01:22:01;5.62;;;3.15;;
8544;SDS011;4310;51.054;6.994;2023-01-01T01:23:05;4.03;;;3.05;;
8544;SDS011;4310;51.054;6.994;2023-01-01T01:24:08;6.72;;;2.90;;
8544;SDS011;4310;51.054;6.994;2023-01-01T01:25:13;4.08;;;2.90;;
8544;SDS011;4310;51.054;6.994;2023-01-01T01:26:17;4.47;;;3.02;;
8544;SDS011;4310;51.054;6.994;2023-01-01T01:27:21;4.70;;;2.67;;
8544;SDS011;4310;51.054;6.994;2023-01-01T01:28:25;4.08;;;2.75;;
8544;SDS011;4310;51.054;6.994;2023-01-01T01:29:31;4.15;;;2.90;;
8544;SDS011;4310;51.054;6.994;2023-01-01T01:30:36;4.17;;;3.02;;
8544;SDS011;4310;51.054;6.994;2023-01-01T01:31:40;6.35;;;3.37;;
8544;SDS011;4310;51.054;6.994;2023-01-01T01:33:55;5.30;;;2.70;;
8544;SDS011;4310;51.054;6.994;2023-01-01T01:34:59;4.83;;;2.70;;
8544;SDS011;4310;51.054;6.994;2023-01-01T01:36:03;3.98;;;2.83;;
8544;SDS011;4310;51.054;6.994;2023-01-01T01:38:19;5.85;;;2.80;;
8544;SDS011;4310;51.054;6.994;2023-01-01T01:39:23;2.95;;;1.98;;
8544;SDS011;4310;51.054;6.994;2023-01-01T01:40:27;3.08;;;2.10;;
8544;SDS011;4310;51.054;6.994;2023-01-01T01:41:30;5.60;;;2.75;;
8544;SDS011;4310;51.054;6.994;2023-01-01T01:42:34;6.20;;;2.60;;
8544;SDS011;4310;51.054;6.994;2023-01-01T01:45:04;4.03;;;2.60;;
8544;SDS011;4310;51.054;6.994;2023-01-01T01:46:09;4.17;;;2.60;;
8544;SDS011;4310;51.054;6.994;2023-01-01T01:47:14;2.58;;;2.20;;
8544;SDS011;4310;51.054;6.994;2023-01-01T01:48:19;4.47;;;2.58;;
8544;SDS011;4310;51.054;6.994;2023-01-01T01:49:25;3.92;;;2.80;;
8544;SDS011;4310;51.054;6.994;2023-01-01T01:50:29;3.75;;;2.22;;
8544;SDS011;4310;51.054;6.994;2023-01-01T01:51:34;3.97;;;2.30;;
8544;SDS011;4310;51.054;6.994;2023-01-01T01:52:39;3.83;;;2.58;;
8544;SDS011;4310;51.054;6.994;2023-01-01T01:53:44;3.45;;;2.30;;
8544;SDS011;4310;51.054;6.994;2023-01-01T01:54:48;4.15;;;2.55;;
8544;SDS011;4310;51.054;6.994;2023-01-01T01:55:52;4.37;;;2.37;;
8544;SDS011;4310;51.054;6.994;2023-01-01T01:56:58;3.55;;;2.25;;
8544;SDS011;4310;51.054;6.994;2023-01-01T01:59:15;4.03;;;2.33;;
8544;SDS011;4310;51.054;6.994;2023-01-01T02:00:19;3.65;;;2.20;;
8544;SDS011;4310;51.054;6.994;2023-01-01T02:01:23;1.95;;;1.70;;
8544;SDS011;4310;51.054;6.994;2023-01-01T02:02:27;4.15;;;1.65;;
8544;SDS011;4310;51.054;6.994;2023-01-01T02:03:34;3.02;;;1.85;;
8544;SDS011;4310;51.054;6.994;2023-01-01T02:04:37;4.35;;;2.60;;
8544;SDS011;4310;51.054;6.994;2023-01-01T02:05:41;2.92;;;1.90;;
8544;SDS011;4310;51.054;6.994;2023-01-01T02:06:45;3.02;;;1.50;;
8544;SDS011;4310;51.054;6.994;2023-01-01T02:07:50;5.30;;;2.40;;
8544;SDS011;4310;51.054;6.994;2023-01-01T02:08:53;3.80;;;2.20;;
8544;SDS011;4310;51.054;6.994;2023-01-01T02:09:58;2.77;;;2.10;;
8544;SDS011;4310;51.054;6.994;2023-01-01T02:11:03;3.35;;;2.20;;
8544;SDS011;4310;51.054;6.994;2023-01-01T02:12:07;2.55;;;1.85;;
8544;SDS011;4310;51.054;6.994;2023-01-01T02:13:10;2.70;;;1.77;;
8544;SDS011;4310;51.054;6.994;2023-01-01T02:14:14;3.00;;;1.95;;
8544;SDS011;4310;51.054;6.994;2023-01-01T02:15:18;2.15;;;1.70;;
8544;SDS011;4310;51.054;6.994;2023-01-01T02:17:34;3.87;;;1.87;;
8544;SDS011;4310;51.054;6.994;2023-01-01T02:18:39;4.67;;;1.90;;
8544;SDS011;4310;51.054;6.994;2023-01-01T02:19:47;2.47;;;1.87;;
8544;SDS011;4310;51.054;6.994;2023-01-01T02:20:49;2.55;;;1.70;;
8544;SDS011;4310;51.054;6.994;2023-01-01T02:21:58;3.10;;;1.95;;
8544;SDS011;4310;51.054;6.994;2023-01-01T02:23:08;3.55;;;2.20;;
8544;SDS011;4310;51.054;6.994;2023-01-01T02:24:16;3.62;;;2.12;;
8544;SDS011;4310;51.054;6.994;2023-01-01T02:25:21;1.98;;;1.47;;
8544;SDS011;4310;51.054;6.994;2023-01-01T02:27:49;2.98;;;1.87;;
8544;SDS011;4310;51.054;6.994;2023-01-01T02:28:56;3.12;;;1.50;;
8544;SDS011;4310;51.054;6.994;2023-01-01T02:31:12;2.98;;;1.62;;
8544;SDS011;4310;51.054;6.994;2023-01-01T02:32:18;2.37;;;1.52;;
8544;SDS011;4310;51.054;6.994;2023-01-01T02:33:23;3.70;;;1.20;;
8544;SDS011;4310;51.054;6.994;2023-01-01T02:34:29;2.10;;;1.45;;
8544;SDS011;4310;51.054;6.994;2023-01-01T02:35:33;3.00;;;1.70;;
8544;SDS011;4310;51.054;6.994;2023-01-01T02:36:41;3.90;;;1.80;;
8544;SDS011;4310;51.054;6.994;2023-01-01T02:37:45;2.85;;;1.70;;
8544;SDS011;4310;51.054;6.994;2023-01-01T02:38:50;3.95;;;1.70;;
8544;SDS011;4310;51.054;6.994;2023-01-01T02:39:55;3.55;;;1.77;;
8544;SDS011;4310;51.054;6.994;2023-01-01T02:41:00;2.65;;;1.80;;
8544;SDS011;4310;51.054;6.994;2023-01-01T02:42:05;2.70;;;1.57;;
8544;SDS011;4310;51.054;6.994;2023-01-01T02:43:09;2.35;;;1.60;;
8544;SDS011;4310;51.054;6.994;2023-01-01T02:44:13;3.30;;;1.82;;
8544;SDS011;4310;51.054;6.994;2023-01-01T02:45:17;2.60;;;1.62;;
8544;SDS011;4310;51.054;6.994;2023-01-01T02:46:21;2.12;;;1.72;;
8544;SDS011;4310;51.054;6.994;2023-01-01T02:47:25;3.58;;;1.70;;
8544;SDS011;4310;51.054;6.994;2023-01-01T02:48:36;4.20;;;1.90;;
8544;SDS011;4310;51.054;6.994;2023-01-01T02:49:43;3.47;;;1.80;;
8544;SDS011;4310;51.054;6.994;2023-01-01T02:50:46;1.55;;;1.40;;
8544;SDS011;4310;51.054;6.994;2023-01-01T02:51:54;3.45;;;1.62;;
8544;SDS011;4310;51.054;6.994;2023-01-01T02:53:02;3.02;;;1.77;;
8544;SDS011;4310;51.054;6.994;2023-01-01T02:54:09;2.87;;;1.80;;
8544;SDS011;4310;51.054;6.994;2023-01-01T02:55:15;3.17;;;1.60;;
8544;SDS011;4310;51.054;6.994;2023-01-01T02:56:21;2.75;;;1.75;;
8544;SDS011;4310;51.054;6.994;2023-01-01T02:57:27;4.15;;;1.55;;
8544;SDS011;4310;51.054;6.994;2023-01-01T02:58:32;4.03;;;1.98;;
8544;SDS011;4310;51.054;6.994;2023-01-01T03:01:08;3.37;;;1.70;;
8544;SDS011;4310;51.054;6.994;2023-01-01T03:02:16;2.85;;;1.70;;
8544;SDS011;4310;51.054;6.994;2023-01-01T03:03:22;3.40;;;1.90;;
8544;SDS011;4310;51.054;6.994;2023-01-01T03:04:27;2.65;;;1.65;;
8544;SDS011;4310;51.054;6.994;2023-01-01T03:05:33;3.33;;;1.75;;
8544;SDS011;4310;51.054;6.994;2023-01-01T03:06:38;3.25;;;2.02;;
8544;SDS011;4310;51.054;6.994;2023-01-01T03:07:46;3.17;;;1.70;;
8544;SDS011;4310;51.054;6.994;2023-01-01T03:08:52;2.20;;;1.40;;
8544;SDS011;4310;51.054;6.994;2023-01-01T03:09:58;3.67;;;1.70;;
8544;SDS011;4310;51.054;6.994;2023-01-01T03:11:03;4.53;;;1.83;;
8544;SDS011;4310;51.054;6.994;2023-01-01T03:12:11;2.37;;;1.65;;
8544;SDS011;4310;51.054;6.994;2023-01-01T03:13:16;4.12;;;1.95;;
8544;SDS011;4310;51.054;6.994;2023-01-01T03:14:21;3.90;;;1.62;;
8544;SDS011;4310;51.054;6.994;2023-01-01T03:15:26;1.95;;;1.55;;
8544;SDS011;4310;51.054;6.994;2023-01-01T03:16:32;3.55;;;1.95;;
8544;SDS011;4310;51.054;6.994;2023-01-01T03:17:37;3.22;;;1.85;;
8544;SDS011;4310;51.054;6.994;2023-01-01T03:19:53;4.40;;;1.90;;
8544;SDS011;4310;51.054;6.994;2023-01-01T03:22:10;2.52;;;1.70;;
8544;SDS011;4310;51.054;6.994;2023-01-01T03:23:16;3.47;;;1.85;;
8544;SDS011;4310;51.054;6.994;2023-01-01T03:24:22;3.47;;;1.77;;
8544;SDS011;4310;51.054;6.994;2023-01-01T03:25:27;5.47;;;2.10;;
8544;SDS011;4310;51.054;6.994;2023-01-01T03:26:31;2.45;;;1.90;;
8544;SDS011;4310;51.054;6.994;2023-01-01T03:27:38;3.58;;;1.85;;
8544;SDS011;4310;51.054;6.994;2023-01-01T03:28:42;2.15;;;1.60;;
8544;SDS011;4310;51.054;6.994;2023-01-01T03:29:47;2.42;;;1.70;;
8544;SDS011;4310;51.054;6.994;2023-01-01T03:30:52;3.12;;;1.80;;
8544;SDS011;4310;51.054;6.994;2023-01-01T03:33:10;2.12;;;1.60;;
8544;SDS011;4310;51.054;6.994;2023-01-01T03:34:15;2.25;;;1.50;;
8544;SDS011;4310;51.054;6.994;2023-01-01T03:35:19;3.87;;;1.63;;
8544;SDS011;4310;51.054;6.994;2023-01-01T03:36:26;4.30;;;2.08;;
8544;SDS011;4310;51.054;6.994;2023-01-01T03:37:30;2.85;;;1.82;;
8544;SDS011;4310;51.054;6.994;2023-01-01T03:38:35;3.20;;;1.70;;
8544;SDS011;4310;51.054;6.994;2023-01-01T03:39:40;2.83;;;1.30;;
8544;SDS011;4310;51.054;6.994;2023-01-01T03:40:45;3.92;;;1.50;;
8544;SDS011;4310;51.054;6.994;2023-01-01T03:41:51;3.15;;;1.52;;
8544;SDS011;4310;51.054;6.994;2023-01-01T03:44:07;2.17;;;1.45;;
8544;SDS011;4310;51.054;6.994;2023-01-01T03:45:13;2.45;;;1.50;;
8544;SDS011;4310;51.054;6.994;2023-01-01T03:47:29;2.90;;;1.80;;
8544;SDS011;4310;51.054;6.994;2023-01-01T03:48:33;3.05;;;1.62;;
8544;SDS011;4310;51.054;6.994;2023-01-01T03:49:38;2.60;;;1.72;;
8544;SDS011;4310;51.054;6.994;2023-01-01T03:50:45;4.90;;;1.82;;
8544;SDS011;4310;51.054;6.994;2023-01-01T03:51:57;4.78;;;2.08;;
8544;SDS011;4310;51.054;6.994;2023-01-01T03:53:02;1.90;;;1.70;;
8544;SDS011;4310;51.054;6.994;2023-01-01T03:54:07;4.57;;;1.90;;
8544;SDS011;4310;51.054;6.994;2023-01-01T03:55:15;3.10;;;1.82;;
8544;SDS011;4310;51.054;6.994;2023-01-01T03:56:18;3.83;;;2.02;;
8544;SDS011;4310;51.054;6.994;2023-01-01T03:57:23;4.40;;;1.98;;
8544;SDS011;4310;51.054;6.994;2023-01-01T03:58:32;5.20;;;1.70;;
8544;SDS011;4310;51.054;6.994;2023-01-01T03:59:34;4.23;;;2.03;;
8544;SDS011;4310;51.054;6.994;2023-01-01T04:00:39;2.42;;;1.90;;
8544;SDS011;4310;51.054;6.994;2023-01-01T04:01:44;4.15;;;1.80;;
8544;SDS011;4310;51.054;6.994;2023-01-01T04:02:49;4.17;;;1.90;;
8544;SDS011;4310;51.054;6.994;2023-01-01T04:03:54;4.62;;;2.02;;
8544;SDS011;4310;51.054;6.994;2023-01-01T04:04:58;3.33;;;1.80;;
8544;SDS011;4310;51.054;6.994;2023-01-01T04:06:03;3.30;;;1.80;;
8544;SDS011;4310;51.054;6.994;2023-01-01T04:07:07;4.03;;;2.05;;
8544;SDS011;4310;51.054;6.994;2023-01-01T04:08:10;3.72;;;1.82;;
8544;SDS011;4310;51.054;6.994;2023-01-01T04:09:16;2.75;;;2.00;;
8544;SDS011;4310;51.054;6.994;2023-01-01T04:10:20;4.95;;;1.90;;
8544;SDS011;4310;51.054;6.994;2023-01-01T04:11:25;4.60;;;1.90;;
8544;SDS011;4310;51.054;6.994;2023-01-01T04:12:48;2.80;;;1.75;;
8544;SDS011;4310;51.054;6.994;2023-01-01T04:13:52;2.47;;;1.40;;
8544;SDS011;4310;51.054;6.994;2023-01-01T04:14:55;4.78;;;2.08;;
8544;SDS011;4310;51.054;6.994;2023-01-01T04:15:59;3.45;;;1.95;;
8544;SDS011;4310;51.054;6.994;2023-01-01T04:17:03;2.25;;;1.60;;
8544;SDS011;4310;51.054;6.994;2023-01-01T04:18:07;5.83;;;2.08;;
8544;SDS011;4310;51.054;6.994;2023-01-01T04:19:11;3.33;;;2.10;;
8544;SDS011;4310;51.054;6.994;2023-01-01T04:20:15;4.08;;;1.80;;
8544;SDS011;4310;51.054;6.994;2023-01-01T04:21:19;3.12;;;1.95;;
8544;SDS011;4310;51.054;6.994;2023-01-01T04:23:34;5.62;;;2.00;;
8544;SDS011;4310;51.054;6.994;2023-01-01T04:24:38;3.30;;;1.95;;
8544;SDS011;4310;51.054;6.994;2023-01-01T04:25:41;4.30;;;2.05;;
8544;SDS011;4310;51.054;6.994;2023-01-01T04:26:45;2.40;;;1.65;;
8544;SDS011;4310;51.054;6.994;2023-01-01T04:27:49;3.65;;;1.90;;
8544;SDS011;4310;51.054;6.994;2023-01-01T04:28:53;5.20;;;2.17;;
8544;SDS011;4310;51.054;6.994;2023-01-01T04:29:56;3.60;;;1.90;;
8544;SDS011;4310;51.054;6.994;2023-01-01T04:31:00;3.62;;;1.90;;
8544;SDS011;4310;51.054;6.994;2023-01-01T04:32:04;6.20;;;2.17;;
8544;SDS011;4310;51.054;6.994;2023-01-01T04:33:08;4.40;;;2.27;;
8544;SDS011;4310;51.054;6.994;2023-01-01T04:34:12;3.25;;;1.87;;
8544;SDS011;4310;51.054;6.994;2023-01-01T04:36:27;2.70;;;1.50;;
8544;SDS011;4310;51.054;6.994;2023-01-01T04:37:31;5.05;;;1.80;;
8544;SDS011;4310;51.054;6.994;2023-01-01T04:38:35;3.70;;;1.80;;
8544;SDS011;4310;51.054;6.994;2023-01-01T04:39:38;4.33;;;1.90;;
8544;SDS011;4310;51.054;6.994;2023-01-01T04:40:42;2.47;;;1.75;;
8544;SDS011;4310;51.054;6.994;2023-01-01T04:41:46;3.42;;;1.82;;
8544;SDS011;4310;51.054;6.994;2023-01-01T04:42:52;3.27;;;1.82;;
8544;SDS011;4310;51.054;6.994;2023-01-01T04:45:09;4.55;;;1.80;;
8544;SDS011;4310;51.054;6.994;2023-01-01T04:46:13;2.65;;;1.80;;
8544;SDS011;4310;51.054;6.994;2023-01-01T04:47:17;3.92;;;1.85;;
8544;SDS011;4310;51.054;6.994;2023-01-01T04:49:32;3.25;;;1.92;;
8544;SDS011;4310;51.054;6.994;2023-01-01T04:50:36;4.67;;;2.17;;
8544;SDS011;4310;51.054;6.994;2023-01-01T04:51:40;2.83;;;1.80;;
8544;SDS011;4310;51.054;6.994;2023-01-01T04:52:43;3.50;;;1.90;;
8544;SDS011;4310;51.054;6.994;2023-01-01T04:53:47;4.75;;;2.00;;
8544;SDS011;4310;51.054;6.994;2023-01-01T04:54:51;6.62;;;1.87;;
8544;SDS011;4310;51.054;6.994;2023-01-01T04:55:55;3.47;;;1.85;;
8544;SDS011;4310;51.054;6.994;2023-01-01T04:56:58;3.55;;;1.90;;
8544;SDS011;4310;51.054;6.994;2023-01-01T04:58:02;3.58;;;1.80;;
8544;SDS011;4310;51.054;6.994;2023-01-01T04:59:06;4.28;;;1.90;;
8544;SDS011;4310;51.054;6.994;2023-01-01T05:01:22;3.95;;;1.75;;
8544;SDS011;4310;51.054;6.994;2023-01-01T05:02:26;3.27;;;1.75;;
8544;SDS011;4310;51.054;6.994;2023-01-01T05:03:30;2.58;;;1.70;;
8544;SDS011;4310;51.054;6.994;2023-01-01T05:04:34;2.90;;;1.70;;
8544;SDS011;4310;51.054;6.994;2023-01-01T05:05:38;2.75;;;1.80;;
8544;SDS011;4310;51.054;6.994;2023-01-01T05:06:41;3.62;;;2.02;;
8544;SDS011;4310;51.054;6.994;2023-01-01T05:07:45;3.50;;;1.90;;
8544;SDS011;4310;51.054;6.994;2023-01-01T05:08:49;4.20;;;1.82;;
8544;SDS011;4310;51.054;6.994;2023-01-01T05:09:54;4.05;;;1.80;;
8544;SDS011;4310;51.054;6.994;2023-01-01T05:11:00;4.15;;;1.67;;
8544;SDS011;4310;51.054;6.994;2023-01-01T05:12:04;3.37;;;1.90;;
8544;SDS011;4310;51.054;6.994;2023-01-01T05:13:08;3.60;;;1.90;;
8544;SDS011;4310;51.054;6.994;2023-01-01T05:14:12;3.47;;;1.90;;
8544;SDS011;4310;51.054;6.994;2023-01-01T05:15:15;3.35;;;1.50;;
8544;SDS011;4310;51.054;6.994;2023-01-01T05:16:20;4.45;;;1.90;;
8544;SDS011;4310;51.054;6.994;2023-01-01T05:17:24;5.45;;;1.82;;
8544;SDS011;4310;51.054;6.994;2023-01-01T05:18:27;4.42;;;1.77;;
8544;SDS011;4310;51.054;6.994;2023-01-01T05:19:31;3.22;;;1.80;;
8544;SDS011;4310;51.054;6.994;2023-01-01T05:20:35;2.85;;;1.80;;
8544;SDS011;4310;51.054;6.994;2023-01-01T05:21:39;2.45;;;1.90;;
8544;SDS011;4310;51.054;6.994;2023-01-01T05:22:44;2.72;;;1.82;;
8544;SDS011;4310;51.054;6.994;2023-01-01T05:23:52;3.58;;;1.90;;
8544;SDS011;4310;51.054;6.994;2023-01-01T05:24:53;3.33;;;1.70;;
8544;SDS011;4310;51.054;6.994;2023-01-01T05:25:57;4.10;;;1.95;;
8544;SDS011;4310;51.054;6.994;2023-01-01T05:27:01;3.00;;;1.70;;
8544;SDS011;4310;51.054;6.994;2023-01-01T05:28:05;3.33;;;1.70;;
8544;SDS011;4310;51.054;6.994;2023-01-01T05:29:10;5.67;;;1.80;;
8544;SDS011;4310;51.054;6.994;2023-01-01T05:30:14;2.73;;;1.80;;
8544;SDS011;4310;51.054;6.994;2023-01-01T05:31:18;2.87;;;1.90;;
8544;SDS011;4310;51.054;6.994;2023-01-01T05:32:22;3.05;;;1.52;;
8544;SDS011;4310;51.054;6.994;2023-01-01T05:33:26;2.42;;;1.72;;
8544;SDS011;4310;51.054;6.994;2023-01-01T05:34:30;2.20;;;1.60;;
8544;SDS011;4310;51.054;6.994;2023-01-01T05:35:34;3.80;;;1.90;;
8544;SDS011;4310;51.054;6.994;2023-01-01T05:36:37;3.10;;;1.70;;
8544;SDS011;4310;51.054;6.994;2023-01-01T05:37:41;2.80;;;1.60;;
8544;SDS011;4310;51.054;6.994;2023-01-01T05:38:45;3.08;;;1.87;;
8544;SDS011;4310;51.054;6.994;2023-01-01T05:39:49;2.55;;;1.75;;
8544;SDS011;4310;51.054;6.994;2023-01-01T05:42:04;2.98;;;1.70;;
8544;SDS011;4310;51.054;6.994;2023-01-01T05:43:08;2.98;;;1.82;;
8544;SDS011;4310;51.054;6.994;2023-01-01T05:44:11;4.47;;;1.80;;
8544;SDS011;4310;51.054;6.994;2023-01-01T05:45:17;3.20;;;1.70;;
8544;SDS011;4310;51.054;6.994;2023-01-01T05:46:21;3.22;;;1.62;;
8544;SDS011;4310;51.054;6.994;2023-01-01T05:47:26;2.10;;;1.50;;
8544;SDS011;4310;51.054;6.994;2023-01-01T05:48:30;4.05;;;1.85;;
8544;SDS011;4310;51.054;6.994;2023-01-01T05:49:33;4.00;;;1.70;;
8544;SDS011;4310;51.054;6.994;2023-01-01T05:50:37;3.33;;;1.72;;
8544;SDS011;4310;51.054;6.994;2023-01-01T05:51:41;4.83;;;1.60;;
8544;SDS011;4310;51.054;6.994;2023-01-01T05:52:45;3.83;;;1.90;;
8544;SDS011;4310;51.054;6.994;2023-01-01T05:53:49;4.37;;;2.05;;
8544;SDS011;4310;51.054;6.994;2023-01-01T05:54:53;4.70;;;1.80;;
8544;SDS011;4310;51.054;6.994;2023-01-01T05:55:56;4.12;;;1.70;;
8544;SDS011;4310;51.054;6.994;2023-01-01T05:57:00;4.00;;;1.75;;
8544;SDS011;4310;51.054;6.994;2023-01-01T05:58:04;3.83;;;1.98;;
8544;SDS011;4310;51.054;6.994;2023-01-01T05:59:09;3.00;;;1.90;;
8544;SDS011;4310;51.054;6.994;2023-01-01T06:00:14;4.08;;;1.65;;
8544;SDS011;4310;51.054;6.994;2023-01-01T06:01:18;4.45;;;1.98;;
8544;SDS011;4310;51.054;6.994;2023-01-01T06:02:22;3.95;;;1.80;;
8544;SDS011;4310;51.054;6.994;2023-01-01T06:04:37;3.47;;;2.00;;
8544;SDS011;4310;51.054;6.994;2023-01-01T06:05:41;3.20;;;1.82;;
8544;SDS011;4310;51.054;6.994;2023-01-01T06:06:45;4.67;;;1.90;;
8544;SDS011;4310;51.054;6.994;2023-01-01T06:07:48;5.92;;;2.05;;
8544;SDS011;4310;51.054;6.994;2023-01-01T06:08:53;3.17;;;1.80;;
8544;SDS011;4310;51.054;6.994;2023-01-01T06:09:57;5.92;;;1.90;;
8544;SDS011;4310;51.054;6.994;2023-01-01T06:11:01;4.95;;;2.10;;
8544;SDS011;4310;51.054;6.994;2023-01-01T06:12:06;7.33;;;2.15;;
8544;SDS011;4310;51.054;6.994;2023-01-01T06:13:10;4.47;;;2.20;;
8544;SDS011;4310;51.054;6.994;2023-01-01T06:14:13;4.05;;;2.20;;
8544;SDS011;4310;51.054;6.994;2023-01-01T06:15:17;2.20;;;1.80;;
8544;SDS011;4310;51.054;6.994;2023-01-01T06:16:21;4.60;;;2.25;;
8544;SDS011;4310;51.054;6.994;2023-01-01T06:17:24;6.90;;;2.60;;
8544;SDS011;4310;51.054;6.994;2023-01-01T06:18:29;2.45;;;1.90;;
8544;SDS011;4310;51.054;6.994;2023-01-01T06:19:32;5.03;;;2.17;;
8544;SDS011;4310;51.054;6.994;2023-01-01T06:20:36;3.25;;;1.90;;
8544;SDS011;4310;51.054;6.994;2023-01-01T06:22:51;3.30;;;2.05;;
8544;SDS011;4310;51.054;6.994;2023-01-01T06:23:55;2.12;;;1.75;;
8544;SDS011;4310;51.054;6.994;2023-01-01T06:25:00;4.03;;;2.10;;
8544;SDS011;4310;51.054;6.994;2023-01-01T06:26:04;4.20;;;2.10;;
8544;SDS011;4310;51.054;6.994;2023-01-01T06:27:08;4.78;;;1.92;;
8544;SDS011;4310;51.054;6.994;2023-01-01T06:28:15;2.85;;;1.92;;
8544;SDS011;4310;51.054;6.994;2023-01-01T06:29:18;5.00;;;1.90;;
8544;SDS011;4310;51.054;6.994;2023-01-01T06:30:22;2.67;;;1.55;;
8544;SDS011;4310;51.054;6.994;2023-01-01T06:31:26;2.37;;;1.40;;
8544;SDS011;4310;51.054;6.994;2023-01-01T06:32:33;2.77;;;1.70;;
8544;SDS011;4310;51.054;6.994;2023-01-01T06:33:37;3.62;;;1.75;;
8544;SDS011;4310;51.054;6.994;2023-01-01T06:34:40;5.17;;;2.10;;
8544;SDS011;4310;51.054;6.994;2023-01-01T06:35:44;3.02;;;1.75;;
8544;SDS011;4310;51.054;6.994;2023-01-01T06:36:48;4.55;;;2.00;;
8544;SDS011;4310;51.054;6.994;2023-01-01T06:37:52;3.80;;;2.00;;
8544;SDS011;4310;51.054;6.994;2023-01-01T06:38:56;3.40;;;1.75;;
8544;SDS011;4310;51.054;6.994;2023-01-01T06:40:01;7.50;;;2.08;;
8544;SDS011;4310;51.054;6.994;2023-01-01T06:41:06;3.87;;;1.98;;
8544;SDS011;4310;51.054;6.994;2023-01-01T06:42:13;3.55;;;2.08;;
8544;SDS011;4310;51.054;6.994;2023-01-01T06:43:16;3.60;;;1.90;;
8544;SDS011;4310;51.054;6.994;2023-01-01T06:44:20;3.15;;;1.80;;
8544;SDS011;4310;51.054;6.994;2023-01-01T06:45:24;3.05;;;1.67;;
8544;SDS011;4310;51.054;6.994;2023-01-01T06:46:28;3.55;;;1.52;;
8544;SDS011;4310;51.054;6.994;2023-01-01T06:47:32;5.12;;;1.90;;
8544;SDS011;4310;51.054;6.994;2023-01-01T06:48:37;4.15;;;1.90;;
8544;SDS011;4310;51.054;6.994;2023-01-01T06:49:40;3.02;;;1.70;;
8544;SDS011;4310;51.054;6.994;2023-01-01T06:50:44;4.47;;;2.00;;
8544;SDS011;4310;51.054;6.994;2023-01-01T06:51:48;3.40;;;1.95;;
8544;SDS011;4310;51.054;6.994;2023-01-01T06:52:51;3.35;;;2.00;;
8544;SDS011;4310;51.054;6.994;2023-01-01T06:53:59;4.95;;;1.92;;
8544;SDS011;4310;51.054;6.994;2023-01-01T06:55:04;3.65;;;2.00;;
8544;SDS011;4310;51.054;6.994;2023-01-01T06:56:08;3.10;;;1.90;;
8544;SDS011;4310;51.054;6.994;2023-01-01T06:57:12;4.27;;;2.20;;
8544;SDS011;4310;51.054;6.994;2023-01-01T06:58:15;4.35;;;2.10;;
8544;SDS011;4310;51.054;6.994;2023-01-01T06:59:19;4.83;;;2.25;;
8544;SDS011;4310;51.054;6.994;2023-01-01T07:00:23;3.17;;;1.90;;
8544;SDS011;4310;51.054;6.994;2023-01-01T07:01:27;3.45;;;1.67;;
8544;SDS011;4310;51.054;6.994;2023-01-01T07:02:31;3.40;;;1.92;;
8544;SDS011;4310;51.054;6.994;2023-01-01T07:04:46;6.42;;;2.10;;
8544;SDS011;4310;51.054;6.994;2023-01-01T07:05:50;3.50;;;2.08;;
8544;SDS011;4310;51.054;6.994;2023-01-01T07:06:53;4.90;;;2.10;;
8544;SDS011;4310;51.054;6.994;2023-01-01T07:07:57;3.83;;;2.10;;
8544;SDS011;4310;51.054;6.994;2023-01-01T07:09:01;3.02;;;1.92;;
8544;SDS011;4310;51.054;6.994;2023-01-01T07:10:05;5.08;;;2.22;;
8544;SDS011;4310;51.054;6.994;2023-01-01T07:11:09;4.58;;;2.20;;
8544;SDS011;4310;51.054;6.994;2023-01-01T07:12:13;3.80;;;2.25;;
8544;SDS011;4310;51.054;6.994;2023-01-01T07:13:17;5.17;;;2.10;;
8544;SDS011;4310;51.054;6.994;2023-01-01T07:15:32;4.35;;;2.30;;
8544;SDS011;4310;51.054;6.994;2023-01-01T07:16:35;4.87;;;2.30;;
8544;SDS011;4310;51.054;6.994;2023-01-01T07:17:39;2.80;;;1.77;;
8544;SDS011;4310;51.054;6.994;2023-01-01T07:18:43;1.95;;;1.57;;